sensor_id;sensor_type;location;lat;lon;timestamp;pressure;altitude;pressure_sealevel;temperature;humidity
84990;BME280;75307;53.836;10.476;2024-02-15T00:00:23;101288.56;;;9.20;90.31
84990;BME280;75307;53.836;10.476;2024-02-15T00:02:27;101290.28;;;9.21;90.22
84990;BME280;75307;53.836;10.476;2024-02-15T00:04:29;101292.06;;;9.19;90.92
84990;BME280;75307;53.836;10.476;2024-02-15T00:06:32;101299.06;;;9.20;90.20
84990;BME280;75307;53.836;10.476;2024-02-15T00:08:33;101295.56;;;9.18;90.26
84990;BME280;75307;53.836;10.476;2024-02-15T00:10:35;101299.06;;;9.18;90.38
84990;BME280;75307;53.836;10.476;2024-02-15T00:12:37;101286.97;;;9.10;91.41
84990;BME280;75307;53.836;10.476;2024-02-15T00:14:39;101306.94;;;9.18;90.92
84990;BME280;75307;53.836;10.476;2024-02-15T00:16:41;101305.19;;;9.17;90.53
84990;BME280;75307;53.836;10.476;2024-02-15T00:18:43;101286.16;;;9.08;91.34
84990;BME280;75307;53.836;10.476;2024-02-15T00:20:45;101309.53;;;9.20;90.58
84990;BME280;75307;53.836;10.476;2024-02-15T00:22:47;101302.53;;;9.19;91.21
84990;BME280;75307;53.836;10.476;2024-02-15T00:24:49;101311.25;;;9.21;90.85
84990;BME280;75307;53.836;10.476;2024-02-15T00:26:51;101304.28;;;9.20;90.42
84990;BME280;75307;53.836;10.476;2024-02-15T00:28:54;101294.75;;;9.16;91.19
84990;BME280;75307;53.836;10.476;2024-02-15T00:30:55;101295.56;;;9.18;90.54
84990;BME280;75307;53.836;10.476;2024-02-15T00:32:58;101303.41;;;9.21;90.52
84990;BME280;75307;53.836;10.476;2024-02-15T00:35:03;101297.28;;;9.19;90.94
84990;BME280;75307;53.836;10.476;2024-02-15T00:37:08;101292.91;;;9.19;91.18
84990;BME280;75307;53.836;10.476;2024-02-15T00:39:09;101289.41;;;9.20;90.36
84990;BME280;75307;53.836;10.476;2024-02-15T00:41:12;101289.41;;;9.20;91.18
84990;BME280;75307;53.836;10.476;2024-02-15T00:43:13;101251.41;;;8.96;90.63
84990;BME280;75307;53.836;10.476;2024-02-15T00:45:15;101293.81;;;9.20;90.52
84990;BME280;75307;53.836;10.476;2024-02-15T00:47:17;101292.91;;;9.21;90.68
84990;BME280;75307;53.836;10.476;2024-02-15T00:49:22;101292.91;;;9.21;90.96
84990;BME280;75307;53.836;10.476;2024-02-15T00:51:27;101289.44;;;9.19;91.44
84990;BME280;75307;53.836;10.476;2024-02-15T00:53:28;101285.03;;;9.19;91.09
84990;BME280;75307;53.836;10.476;2024-02-15T00:55:30;101289.44;;;9.19;90.66
84990;BME280;75307;53.836;10.476;2024-02-15T00:57:32;101299.00;;;9.21;90.52
84990;BME280;75307;53.836;10.476;2024-02-15T00:59:34;101293.81;;;9.20;90.82
84990;BME280;75307;53.836;10.476;2024-02-15T01:01:36;101292.03;;;9.20;90.77
84990;BME280;75307;53.836;10.476;2024-02-15T01:03:38;101295.53;;;9.19;90.51
84990;BME280;75307;53.836;10.476;2024-02-15T01:05:41;101291.13;;;9.21;90.49
84990;BME280;75307;53.836;10.476;2024-02-15T01:07:43;101297.25;;;9.22;91.00
84990;BME280;75307;53.836;10.476;2024-02-15T01:09:45;101299.88;;;9.22;90.86
84990;BME280;75307;53.836;10.476;2024-02-15T01:11:46;101290.28;;;9.21;91.28
84990;BME280;75307;53.836;10.476;2024-02-15T01:13:48;101292.91;;;9.21;90.75
84990;BME280;75307;53.836;10.476;2024-02-15T01:15:50;101297.25;;;9.22;91.11
84990;BME280;75307;53.836;10.476;2024-02-15T01:17:51;101298.97;;;9.23;90.70
84990;BME280;75307;53.836;10.476;2024-02-15T01:19:53;101295.44;;;9.24;90.44
84990;BME280;75307;53.836;10.476;2024-02-15T01:21:55;101297.22;;;9.23;91.28
84990;BME280;75307;53.836;10.476;2024-02-15T01:23:59;101295.44;;;9.24;90.70
84990;BME280;75307;53.836;10.476;2024-02-15T01:26:02;101292.06;;;9.19;91.20
84990;BME280;75307;53.836;10.476;2024-02-15T01:28:05;101303.31;;;9.24;91.09
84990;BME280;75307;53.836;10.476;2024-02-15T01:30:08;101304.19;;;9.24;90.52
84990;BME280;75307;53.836;10.476;2024-02-15T01:32:10;101295.53;;;9.21;90.91
84990;BME280;75307;53.836;10.476;2024-02-15T01:34:12;101302.44;;;9.25;90.89
84990;BME280;75307;53.836;10.476;2024-02-15T01:36:14;101298.06;;;9.25;90.94
84990;BME280;75307;53.836;10.476;2024-02-15T01:38:18;101295.41;;;9.27;91.13
84990;BME280;75307;53.836;10.476;2024-02-15T01:40:20;101302.38;;;9.28;91.55
84990;BME280;75307;53.836;10.476;2024-02-15T01:42:22;101307.56;;;9.31;90.52
84990;BME280;75307;53.836;10.476;2024-02-15T01:44:24;101302.31;;;9.31;91.37
84990;BME280;75307;53.836;10.476;2024-02-15T01:46:26;101301.47;;;9.29;90.98
84990;BME280;75307;53.836;10.476;2024-02-15T01:48:28;101294.47;;;9.31;90.81
84990;BME280;75307;53.836;10.476;2024-02-15T01:50:31;101298.81;;;9.32;91.36
84990;BME280;75307;53.836;10.476;2024-02-15T01:52:34;101304.00;;;9.34;90.75
84990;BME280;75307;53.836;10.476;2024-02-15T01:54:36;101299.63;;;9.36;90.52
84990;BME280;75307;53.836;10.476;2024-02-15T01:56:39;101293.44;;;9.38;90.46
84990;BME280;75307;53.836;10.476;2024-02-15T01:58:41;101289.03;;;9.39;90.62
84990;BME280;75307;53.836;10.476;2024-02-15T02:00:43;101289.94;;;9.38;90.88
84990;BME280;75307;53.836;10.476;2024-02-15T02:02:45;101296.13;;;9.35;90.63
84990;BME280;75307;53.836;10.476;2024-02-15T02:04:47;101295.19;;;9.38;91.11
84990;BME280;75307;53.836;10.476;2024-02-15T02:06:49;101302.16;;;9.40;90.42
84990;BME280;75307;53.836;10.476;2024-02-15T02:08:50;101296.91;;;9.40;91.18
84990;BME280;75307;53.836;10.476;2024-02-15T02:10:54;101296.00;;;9.41;91.24
84990;BME280;75307;53.836;10.476;2024-02-15T02:12:55;101293.31;;;9.44;91.30
84990;BME280;75307;53.836;10.476;2024-02-15T02:14:57;101285.41;;;9.46;90.89
84990;BME280;75307;53.836;10.476;2024-02-15T02:17:10;101275.97;;;9.37;91.34
84990;BME280;75307;53.836;10.476;2024-02-15T02:19:13;101286.22;;;9.49;90.57
84990;BME280;75307;53.836;10.476;2024-02-15T02:21:15;101285.31;;;9.50;90.53
84990;BME280;75307;53.836;10.476;2024-02-15T02:23:17;101286.22;;;9.49;91.30
84990;BME280;75307;53.836;10.476;2024-02-15T02:25:20;101291.38;;;9.52;91.12
84990;BME280;75307;53.836;10.476;2024-02-15T02:27:23;101293.16;;;9.52;90.25
84990;BME280;75307;53.836;10.476;2024-02-15T02:29:25;101287.03;;;9.51;90.58
84990;BME280;75307;53.836;10.476;2024-02-15T02:31:28;101280.91;;;9.52;90.48
84990;BME280;75307;53.836;10.476;2024-02-15T02:33:30;101281.78;;;9.51;91.16
84990;BME280;75307;53.836;10.476;2024-02-15T02:35:32;101286.09;;;9.56;91.05
84990;BME280;75307;53.836;10.476;2024-02-15T02:37:34;101290.53;;;9.54;90.94
84990;BME280;75307;53.836;10.476;2024-02-15T02:39:37;101293.09;;;9.55;90.48
84990;BME280;75307;53.836;10.476;2024-02-15T02:41:40;101295.69;;;9.58;91.31
84990;BME280;75307;53.836;10.476;2024-02-15T02:43:42;101300.03;;;9.59;90.64
84990;BME280;75307;53.836;10.476;2024-02-15T02:45:43;101295.69;;;9.58;91.23
84990;BME280;75307;53.836;10.476;2024-02-15T02:47:45;101293.94;;;9.57;91.30
84990;BME280;75307;53.836;10.476;2024-02-15T02:49:48;101296.53;;;9.59;90.30
84990;BME280;75307;53.836;10.476;2024-02-15T02:51:50;101300.03;;;9.58;91.17
84990;BME280;75307;53.836;10.476;2024-02-15T02:53:51;101298.31;;;9.57;90.69
84990;BME280;75307;53.836;10.476;2024-02-15T02:55:55;101289.66;;;9.51;91.05
84990;BME280;75307;53.836;10.476;2024-02-15T02:57:58;101295.69;;;9.58;90.71
84990;BME280;75307;53.836;10.476;2024-02-15T02:59:59;101298.25;;;9.60;91.38
84990;BME280;75307;53.836;10.476;2024-02-15T03:02:01;101297.41;;;9.59;91.16
84990;BME280;75307;53.836;10.476;2024-02-15T03:04:04;101294.78;;;9.58;91.35
84990;BME280;75307;53.836;10.476;2024-02-15T03:06:05;101293.06;;;9.57;91.10
84990;BME280;75307;53.836;10.476;2024-02-15T03:08:08;101293.94;;;9.57;90.85
84990;BME280;75307;53.836;10.476;2024-02-15T03:10:10;101293.94;;;9.57;91.16
84990;BME280;75307;53.836;10.476;2024-02-15T03:12:14;101298.31;;;9.57;91.30
84990;BME280;75307;53.836;10.476;2024-02-15T03:14:19;101293.06;;;9.57;90.60
84990;BME280;75307;53.836;10.476;2024-02-15T03:16:22;101296.59;;;9.56;91.42
84990;BME280;75307;53.836;10.476;2024-02-15T03:18:25;101286.94;;;9.56;91.63
84990;BME280;75307;53.836;10.476;2024-02-15T03:20:26;101286.09;;;9.56;91.08
84990;BME280;75307;53.836;10.476;2024-02-15T03:22:29;101293.06;;;9.57;91.03
84990;BME280;75307;53.836;10.476;2024-02-15T03:24:30;101285.22;;;9.55;90.83
84990;BME280;75307;53.836;10.476;2024-02-15T03:26:32;101286.94;;;9.56;90.82
84990;BME280;75307;53.836;10.476;2024-02-15T03:28:38;101283.44;;;9.57;91.04
84990;BME280;75307;53.836;10.476;2024-02-15T03:30:42;101289.53;;;9.58;91.33
84990;BME280;75307;53.836;10.476;2024-02-15T03:32:44;101298.31;;;9.57;90.59
84990;BME280;75307;53.836;10.476;2024-02-15T03:34:46;101305.28;;;9.58;91.38
84990;BME280;75307;53.836;10.476;2024-02-15T03:36:48;101300.88;;;9.60;90.87
84990;BME280;75307;53.836;10.476;2024-02-15T03:38:54;101298.31;;;9.57;90.92
84990;BME280;75307;53.836;10.476;2024-02-15T03:40:55;101307.03;;;9.59;91.37
84990;BME280;75307;53.836;10.476;2024-02-15T03:42:57;101308.75;;;9.60;91.44
84990;BME280;75307;53.836;10.476;2024-02-15T03:44:59;101300.03;;;9.59;91.43
84990;BME280;75307;53.836;10.476;2024-02-15T03:47:02;101306.09;;;9.61;91.02
84990;BME280;75307;53.836;10.476;2024-02-15T03:49:05;101300.84;;;9.61;91.23
84990;BME280;75307;53.836;10.476;2024-02-15T03:51:08;101310.47;;;9.61;90.71
84990;BME280;75307;53.836;10.476;2024-02-15T03:53:10;101313.06;;;9.62;91.27
84990;BME280;75307;53.836;10.476;2024-02-15T03:55:12;101313.06;;;9.62;91.35
84990;BME280;75307;53.836;10.476;2024-02-15T03:57:14;101308.81;;;9.57;91.01
84990;BME280;75307;53.836;10.476;2024-02-15T03:59:18;101326.19;;;9.62;91.55
84990;BME280;75307;53.836;10.476;2024-02-15T04:01:22;101310.44;;;9.62;90.97
84990;BME280;75307;53.836;10.476;2024-02-15T04:03:25;101314.81;;;9.63;90.96
84990;BME280;75307;53.836;10.476;2024-02-15T04:05:26;101314.81;;;9.63;91.57
84990;BME280;75307;53.836;10.476;2024-02-15T04:07:29;101321.81;;;9.63;91.24
84990;BME280;75307;53.836;10.476;2024-02-15T04:09:30;101324.44;;;9.63;91.14
84990;BME280;75307;53.836;10.476;2024-02-15T04:11:31;101324.44;;;9.63;91.02
84990;BME280;75307;53.836;10.476;2024-02-15T04:13:34;101320.94;;;9.64;91.71
84990;BME280;75307;53.836;10.476;2024-02-15T04:15:35;101323.50;;;9.65;90.51
84990;BME280;75307;53.836;10.476;2024-02-15T04:17:37;101319.13;;;9.66;91.47
84990;BME280;75307;53.836;10.476;2024-02-15T04:19:40;101318.31;;;9.64;91.68
84990;BME280;75307;53.836;10.476;2024-02-15T04:21:42;101330.53;;;9.65;90.93
84990;BME280;75307;53.836;10.476;2024-02-15T04:23:44;101315.69;;;9.64;91.56
84990;BME280;75307;53.836;10.476;2024-02-15T04:25:46;101314.81;;;9.63;91.35
84990;BME280;75307;53.836;10.476;2024-02-15T04:27:51;101314.81;;;9.63;90.95
84990;BME280;75307;53.836;10.476;2024-02-15T04:29:53;101313.94;;;9.63;91.50
84990;BME280;75307;53.836;10.476;2024-02-15T04:31:54;101319.16;;;9.64;91.36
84990;BME280;75307;53.836;10.476;2024-02-15T04:33:57;101308.69;;;9.63;90.98
84990;BME280;75307;53.836;10.476;2024-02-15T04:36:00;101314.81;;;9.63;90.95
84990;BME280;75307;53.836;10.476;2024-02-15T04:38:04;101311.28;;;9.64;91.36
84990;BME280;75307;53.836;10.476;2024-02-15T04:40:09;101319.13;;;9.66;91.37
84990;BME280;75307;53.836;10.476;2024-02-15T04:42:10;101312.16;;;9.65;90.83
84990;BME280;75307;53.836;10.476;2024-02-15T04:44:12;101310.38;;;9.65;90.91
84990;BME280;75307;53.836;10.476;2024-02-15T04:46:16;101312.09;;;9.68;91.69
84990;BME280;75307;53.836;10.476;2024-02-15T04:48:18;101304.25;;;9.66;91.48
84990;BME280;75307;53.836;10.476;2024-02-15T04:50:20;101316.47;;;9.67;90.83
84990;BME280;75307;53.836;10.476;2024-02-15T04:52:22;101313.81;;;9.69;91.58
84990;BME280;75307;53.836;10.476;2024-02-15T04:54:25;101319.94;;;9.69;91.43
84990;BME280;75307;53.836;10.476;2024-02-15T04:56:26;101320.78;;;9.70;90.98
84990;BME280;75307;53.836;10.476;2024-02-15T04:58:28;101323.38;;;9.73;91.13
84990;BME280;75307;53.836;10.476;2024-02-15T05:00:30;101313.00;;;9.65;91.52
84990;BME280;75307;53.836;10.476;2024-02-15T05:02:31;101326.84;;;9.73;91.24
84990;BME280;75307;53.836;10.476;2024-02-15T05:04:32;101331.25;;;9.73;91.20
84990;BME280;75307;53.836;10.476;2024-02-15T05:06:36;101336.50;;;9.73;90.93
84990;BME280;75307;53.836;10.476;2024-02-15T05:08:39;101339.13;;;9.73;91.38
84990;BME280;75307;53.836;10.476;2024-02-15T05:10:42;101343.47;;;9.74;90.88
84990;BME280;75307;53.836;10.476;2024-02-15T05:12:43;101338.22;;;9.74;91.39
84990;BME280;75307;53.836;10.476;2024-02-15T05:14:48;101341.72;;;9.74;90.93
84990;BME280;75307;53.836;10.476;2024-02-15T05:16:49;101341.66;;;9.76;91.45
84990;BME280;75307;53.836;10.476;2024-02-15T05:18:51;101340.75;;;9.77;90.83
84990;BME280;75307;53.836;10.476;2024-02-15T05:20:53;101335.50;;;9.77;91.13
84990;BME280;75307;53.836;10.476;2024-02-15T05:22:55;101342.47;;;9.80;90.73
84990;BME280;75307;53.836;10.476;2024-02-15T05:24:58;101340.72;;;9.80;91.08
84990;BME280;75307;53.836;10.476;2024-02-15T05:26:59;101347.69;;;9.81;90.92
84990;BME280;75307;53.836;10.476;2024-02-15T05:29:01;101345.91;;;9.83;91.21
84990;BME280;75307;53.836;10.476;2024-02-15T05:31:12;101349.44;;;9.82;90.90
84990;BME280;75307;53.836;10.476;2024-02-15T05:33:17;101344.19;;;9.82;91.46
84990;BME280;75307;53.836;10.476;2024-02-15T05:35:19;101323.41;;;9.70;91.43
84990;BME280;75307;53.836;10.476;2024-02-15T05:37:20;101338.09;;;9.80;90.91
84990;BME280;75307;53.836;10.476;2024-02-15T05:39:23;101338.94;;;9.81;90.75
84990;BME280;75307;53.836;10.476;2024-02-15T05:41:27;101341.56;;;9.81;91.56
84990;BME280;75307;53.836;10.476;2024-02-15T05:43:28;101341.56;;;9.82;91.31
84990;BME280;75307;53.836;10.476;2024-02-15T05:45:31;101337.19;;;9.81;90.80
84990;BME280;75307;53.836;10.476;2024-02-15T05:47:36;101337.16;;;9.83;91.23
84990;BME280;75307;53.836;10.476;2024-02-15T05:49:39;101343.28;;;9.83;91.64
84990;BME280;75307;53.836;10.476;2024-02-15T05:51:41;101344.16;;;9.84;91.41
84990;BME280;75307;53.836;10.476;2024-02-15T05:53:43;101338.84;;;9.85;91.56
84990;BME280;75307;53.836;10.476;2024-02-15T05:55:45;101333.63;;;9.84;91.04
84990;BME280;75307;53.836;10.476;2024-02-15T05:57:51;101328.34;;;9.85;90.85
84990;BME280;75307;53.836;10.476;2024-02-15T05:59:53;101341.53;;;9.84;90.84
84990;BME280;75307;53.836;10.476;2024-02-15T06:01:55;101328.41;;;9.84;91.17
84990;BME280;75307;53.836;10.476;2024-02-15T06:03:56;101328.34;;;9.85;91.62
84990;BME280;75307;53.836;10.476;2024-02-15T06:05:58;101332.75;;;9.85;91.61
84990;BME280;75307;53.836;10.476;2024-02-15T06:08:02;101330.13;;;9.85;90.83
84990;BME280;75307;53.836;10.476;2024-02-15T06:10:05;101327.53;;;9.82;91.00
84990;BME280;75307;53.836;10.476;2024-02-15T06:12:08;101337.09;;;9.86;90.92
84990;BME280;75307;53.836;10.476;2024-02-15T06:14:11;101328.44;;;9.82;91.52
84990;BME280;75307;53.836;10.476;2024-02-15T06:16:12;101331.03;;;9.84;91.04
84990;BME280;75307;53.836;10.476;2024-02-15T06:18:14;101330.97;;;9.85;91.52
84990;BME280;75307;53.836;10.476;2024-02-15T06:20:21;101330.97;;;9.85;91.53
84990;BME280;75307;53.836;10.476;2024-02-15T06:22:23;101340.63;;;9.85;91.55
84990;BME280;75307;53.836;10.476;2024-02-15T06:24:26;101339.75;;;9.84;91.12
84990;BME280;75307;53.836;10.476;2024-02-15T06:26:28;101334.50;;;9.84;91.18
84990;BME280;75307;53.836;10.476;2024-02-15T06:28:30;101343.28;;;9.83;91.01
84990;BME280;75307;53.836;10.476;2024-02-15T06:30:51;101341.53;;;9.84;91.50
84990;BME280;75307;53.836;10.476;2024-02-15T06:33:10;101340.66;;;9.83;91.70
84990;BME280;75307;53.836;10.476;2024-02-15T06:35:29;101341.56;;;9.82;91.37
84990;BME280;75307;53.836;10.476;2024-02-15T06:37:48;101342.44;;;9.81;91.54
84990;BME280;75307;53.836;10.476;2024-02-15T06:40:09;101334.56;;;9.81;91.27
84990;BME280;75307;53.836;10.476;2024-02-15T06:42:12;101349.44;;;9.82;91.53
84990;BME280;75307;53.836;10.476;2024-02-15T06:44:16;101344.19;;;9.82;91.06
84990;BME280;75307;53.836;10.476;2024-02-15T06:46:19;101346.81;;;9.82;91.48
84990;BME280;75307;53.836;10.476;2024-02-15T06:48:20;101346.81;;;9.82;91.50
84990;BME280;75307;53.836;10.476;2024-02-15T06:50:22;101349.44;;;9.82;91.06
84990;BME280;75307;53.836;10.476;2024-02-15T06:52:23;101351.16;;;9.82;91.51
84990;BME280;75307;53.836;10.476;2024-02-15T06:54:25;101328.72;;;9.68;91.56
84990;BME280;75307;53.836;10.476;2024-02-15T06:56:26;101352.06;;;9.82;91.14
84990;BME280;75307;53.836;10.476;2024-02-15T06:58:28;101358.19;;;9.83;91.03
84990;BME280;75307;53.836;10.476;2024-02-15T07:00:29;101352.94;;;9.83;91.48
84990;BME280;75307;53.836;10.476;2024-02-15T07:02:33;101353.78;;;9.83;91.68
84990;BME280;75307;53.836;10.476;2024-02-15T07:04:35;101360.81;;;9.83;91.30
84990;BME280;75307;53.836;10.476;2024-02-15T07:06:38;101361.66;;;9.83;91.22
84990;BME280;75307;53.836;10.476;2024-02-15T07:08:40;101360.75;;;9.84;91.27
84990;BME280;75307;53.836;10.476;2024-02-15T07:10:41;101367.69;;;9.87;91.43
84990;BME280;75307;53.836;10.476;2024-02-15T07:12:43;101358.94;;;9.88;91.04
84990;BME280;75307;53.836;10.476;2024-02-15T07:14:45;101355.41;;;9.89;90.93
84990;BME280;75307;53.836;10.476;2024-02-15T07:16:48;101352.75;;;9.90;91.40
84990;BME280;75307;53.836;10.476;2024-02-15T07:18:52;101341.56;;;9.81;91.13
84990;BME280;75307;53.836;10.476;2024-02-15T07:20:54;101349.25;;;9.90;90.90
84990;BME280;75307;53.836;10.476;2024-02-15T07:22:57;101352.75;;;9.90;91.47
84990;BME280;75307;53.836;10.476;2024-02-15T07:24:59;101350.97;;;9.91;91.19
84990;BME280;75307;53.836;10.476;2024-02-15T07:27:01;101353.59;;;9.92;90.95
84990;BME280;75307;53.836;10.476;2024-02-15T07:29:03;101354.47;;;9.93;91.19
84990;BME280;75307;53.836;10.476;2024-02-15T07:31:06;101352.59;;;9.96;91.21
84990;BME280;75307;53.836;10.476;2024-02-15T07:33:08;101348.25;;;9.95;91.52
84990;BME280;75307;53.836;10.476;2024-02-15T07:35:11;101356.13;;;9.97;91.13
84990;BME280;75307;53.836;10.476;2024-02-15T07:37:12;101349.13;;;9.97;91.53
84990;BME280;75307;53.836;10.476;2024-02-15T07:39:16;101354.38;;;9.97;91.50
84990;BME280;75307;53.836;10.476;2024-02-15T07:41:23;101356.94;;;9.99;91.47
84990;BME280;75307;53.836;10.476;2024-02-15T07:43:25;101357.75;;;10.01;91.56
84990;BME280;75307;53.836;10.476;2024-02-15T07:45:27;101356.03;;;10.01;91.59
84990;BME280;75307;53.836;10.476;2024-02-15T07:47:28;101356.03;;;10.01;91.32
84990;BME280;75307;53.836;10.476;2024-02-15T07:49:31;101359.47;;;10.03;91.23
84990;BME280;75307;53.836;10.476;2024-02-15T07:51:35;101369.09;;;10.05;91.44
84990;BME280;75307;53.836;10.476;2024-02-15T07:53:37;101369.06;;;10.06;91.22
84990;BME280;75307;53.836;10.476;2024-02-15T07:55:38;101375.16;;;10.08;90.85
84990;BME280;75307;53.836;10.476;2024-02-15T07:57:42;101375.09;;;10.10;90.88
84990;BME280;75307;53.836;10.476;2024-02-15T07:59:43;101376.81;;;10.11;91.17
84990;BME280;75307;53.836;10.476;2024-02-15T08:01:45;101382.06;;;10.12;91.38
84990;BME280;75307;53.836;10.476;2024-02-15T08:03:48;101372.47;;;10.10;91.16
84990;BME280;75307;53.836;10.476;2024-02-15T08:05:50;101377.69;;;10.13;91.54
84990;BME280;75307;53.836;10.476;2024-02-15T08:07:54;101373.28;;;10.13;90.93
84990;BME280;75307;53.836;10.476;2024-02-15T08:09:58;101372.41;;;10.13;90.96
84990;BME280;75307;53.836;10.476;2024-02-15T08:12:00;101355.03;;;10.07;91.00
84990;BME280;75307;53.836;10.476;2024-02-15T08:14:03;101374.16;;;10.14;91.32
84990;BME280;75307;53.836;10.476;2024-02-15T08:16:08;101384.66;;;10.14;91.32
84990;BME280;75307;53.836;10.476;2024-02-15T08:18:11;101366.31;;;10.11;90.94
84990;BME280;75307;53.836;10.476;2024-02-15T08:20:14;101377.63;;;10.14;91.12
84990;BME280;75307;53.836;10.476;2024-02-15T08:22:17;101375.00;;;10.14;90.74
84990;BME280;75307;53.836;10.476;2024-02-15T08:24:25;101365.34;;;10.15;91.01
84990;BME280;75307;53.836;10.476;2024-02-15T08:26:27;101363.59;;;10.17;91.26
84990;BME280;75307;53.836;10.476;2024-02-15T08:28:30;101364.44;;;10.17;91.00
84990;BME280;75307;53.836;10.476;2024-02-15T08:30:32;101365.31;;;10.18;91.11
84990;BME280;75307;53.836;10.476;2024-02-15T08:32:33;101364.41;;;10.19;91.26
84990;BME280;75307;53.836;10.476;2024-02-15T08:34:35;101371.38;;;10.20;91.05
84990;BME280;75307;53.836;10.476;2024-02-15T08:36:36;101365.25;;;10.21;91.07
84990;BME280;75307;53.836;10.476;2024-02-15T08:38:40;101357.41;;;10.18;90.33
84990;BME280;75307;53.836;10.476;2024-02-15T08:40:43;101365.13;;;10.27;91.21
84990;BME280;75307;53.836;10.476;2024-02-15T08:42:46;101372.97;;;10.28;91.11
84990;BME280;75307;53.836;10.476;2024-02-15T08:44:48;101372.97;;;10.30;91.01
84990;BME280;75307;53.836;10.476;2024-02-15T08:46:49;101373.78;;;10.32;90.92
84990;BME280;75307;53.836;10.476;2024-02-15T08:48:51;101377.22;;;10.34;90.94
84990;BME280;75307;53.836;10.476;2024-02-15T08:50:53;101375.47;;;10.35;90.84
84990;BME280;75307;53.836;10.476;2024-02-15T08:52:54;101372.81;;;10.36;90.75
84990;BME280;75307;53.836;10.476;2024-02-15T08:54:56;101375.41;;;10.38;90.81
84990;BME280;75307;53.836;10.476;2024-02-15T08:57:01;101372.72;;;10.39;91.11
84990;BME280;75307;53.836;10.476;2024-02-15T08:59:03;101376.19;;;10.41;90.92
84990;BME280;75307;53.836;10.476;2024-02-15T09:01:05;101379.69;;;10.42;90.68
84990;BME280;75307;53.836;10.476;2024-02-15T09:03:08;101370.03;;;10.42;90.56
84990;BME280;75307;53.836;10.476;2024-02-15T09:05:09;101370.03;;;10.42;90.64
84990;BME280;75307;53.836;10.476;2024-02-15T09:07:14;101374.38;;;10.45;90.87
84990;BME280;75307;53.836;10.476;2024-02-15T09:09:16;101355.31;;;10.35;90.79
84990;BME280;75307;53.836;10.476;2024-02-15T09:11:17;101374.28;;;10.48;90.79
84990;BME280;75307;53.836;10.476;2024-02-15T09:13:20;101356.84;;;10.44;90.90
84990;BME280;75307;53.836;10.476;2024-02-15T09:15:23;101369.84;;;10.51;90.30
84990;BME280;75307;53.836;10.476;2024-02-15T09:17:25;101248.00;;;9.78;90.08
84990;BME280;75307;53.836;10.476;2024-02-15T09:19:27;101373.25;;;10.55;90.23
84990;BME280;75307;53.836;10.476;2024-02-15T09:21:28;101362.72;;;10.57;90.44
84990;BME280;75307;53.836;10.476;2024-02-15T09:23:30;101358.31;;;10.57;90.56
84990;BME280;75307;53.836;10.476;2024-02-15T09:25:32;101356.53;;;10.59;90.53
84990;BME280;75307;53.836;10.476;2024-02-15T09:27:33;101369.63;;;10.61;90.48
84990;BME280;75307;53.836;10.476;2024-02-15T09:29:35;101359.91;;;10.63;90.47
84990;BME280;75307;53.836;10.476;2024-02-15T09:31:39;101365.13;;;10.66;90.34
84990;BME280;75307;53.836;10.476;2024-02-15T09:33:41;101369.47;;;10.67;90.80
84990;BME280;75307;53.836;10.476;2024-02-15T09:35:42;101365.94;;;10.68;90.46
84990;BME280;75307;53.836;10.476;2024-02-15T09:37:44;101359.75;;;10.70;90.29
84990;BME280;75307;53.836;10.476;2024-02-15T09:39:46;101363.19;;;10.74;90.15
84990;BME280;75307;53.836;10.476;2024-02-15T09:41:48;101358.78;;;10.74;90.50
84990;BME280;75307;53.836;10.476;2024-02-15T09:43:57;101343.28;;;10.64;90.39
84990;BME280;75307;53.836;10.476;2024-02-15T09:46:00;101356.09;;;10.76;90.14
84990;BME280;75307;53.836;10.476;2024-02-15T09:48:06;101358.72;;;10.76;90.14
84990;BME280;75307;53.836;10.476;2024-02-15T09:50:10;101362.28;;;10.75;89.95
84990;BME280;75307;53.836;10.476;2024-02-15T09:52:14;101364.00;;;10.76;90.45
84990;BME280;75307;53.836;10.476;2024-02-15T09:54:18;101356.97;;;10.76;90.17
84990;BME280;75307;53.836;10.476;2024-02-15T09:56:23;101364.00;;;10.76;90.60
84990;BME280;75307;53.836;10.476;2024-02-15T09:58:25;101358.72;;;10.76;90.23
84990;BME280;75307;53.836;10.476;2024-02-15T10:00:27;101362.22;;;10.78;89.84
84990;BME280;75307;53.836;10.476;2024-02-15T10:02:31;101348.31;;;10.71;90.13
84990;BME280;75307;53.836;10.476;2024-02-15T10:04:33;101368.16;;;10.85;89.96
84990;BME280;75307;53.836;10.476;2024-02-15T10:06:35;101363.72;;;10.87;89.97
84990;BME280;75307;53.836;10.476;2024-02-15T10:08:37;101368.06;;;10.89;90.35
84990;BME280;75307;53.836;10.476;2024-02-15T10:10:39;101360.16;;;10.89;90.04
84990;BME280;75307;53.836;10.476;2024-02-15T10:12:42;101361.84;;;10.92;90.08
84990;BME280;75307;53.836;10.476;2024-02-15T10:14:48;101362.75;;;10.92;90.05
84990;BME280;75307;53.836;10.476;2024-02-15T10:16:51;101358.34;;;10.91;89.72
84990;BME280;75307;53.836;10.476;2024-02-15T10:19:08;101360.97;;;10.93;90.05
84990;BME280;75307;53.836;10.476;2024-02-15T10:21:10;101354.75;;;10.95;89.68
84990;BME280;75307;53.836;10.476;2024-02-15T10:23:24;101363.47;;;10.97;89.58
84990;BME280;75307;53.836;10.476;2024-02-15T10:25:27;101348.75;;;10.90;89.87
84990;BME280;75307;53.836;10.476;2024-02-15T10:27:29;101366.00;;;11.02;89.93
84990;BME280;75307;53.836;10.476;2024-02-15T10:29:38;101364.22;;;11.02;89.84
84990;BME280;75307;53.836;10.476;2024-02-15T10:31:52;101364.22;;;11.02;89.41
84990;BME280;75307;53.836;10.476;2024-02-15T10:34:01;101370.34;;;11.03;89.96
84990;BME280;75307;53.836;10.476;2024-02-15T10:36:08;101354.59;;;11.01;89.75
84990;BME280;75307;53.836;10.476;2024-02-15T10:38:11;101364.19;;;11.04;89.90
84990;BME280;75307;53.836;10.476;2024-02-15T10:40:15;101364.13;;;11.05;89.72